sensor_id;sensor_type;location;lat;lon;timestamp;P1;durP1;ratioP1;P2;durP2;ratioP2
86137;SDS011;76796;49.056;15.810;2024-02-26T00:01:56;21.58;;;10.43;;
86137;SDS011;76796;49.056;15.810;2024-02-26T00:04:22;18.67;;;10.77;;
86137;SDS011;76796;49.056;15.810;2024-02-26T00:06:48;12.32;;;6.93;;
86137;SDS011;76796;49.056;15.810;2024-02-26T00:09:22;16.33;;;8.30;;
86137;SDS011;76796;49.056;15.810;2024-02-26T00:11:47;12.80;;;7.18;;
86137;SDS011;76796;49.056;15.810;2024-02-26T00:14:12;15.30;;;7.40;;
86137;SDS011;76796;49.056;15.810;2024-02-26T00:16:41;14.00;;;7.35;;
86137;SDS011;76796;49.056;15.810;2024-02-26T00:19:07;13.93;;;7.78;;
86137;SDS011;76796;49.056;15.810;2024-02-26T00:21:33;10.20;;;5.45;;
86137;SDS011;76796;49.056;15.810;2024-02-26T00:23:58;12.45;;;7.10;;
86137;SDS011;76796;49.056;15.810;2024-02-26T00:26:31;10.57;;;5.68;;
86137;SDS011;76796;49.056;15.810;2024-02-26T00:28:56;9.77;;;5.85;;
86137;SDS011;76796;49.056;15.810;2024-02-26T00:31:21;11.45;;;6.22;;
86137;SDS011;76796;49.056;15.810;2024-02-26T00:33:47;12.60;;;6.75;;
86137;SDS011;76796;49.056;15.810;2024-02-26T00:36:13;11.45;;;6.63;;
86137;SDS011;76796;49.056;15.810;2024-02-26T00:38:38;13.25;;;6.57;;
86137;SDS011;76796;49.056;15.810;2024-02-26T00:41:05;11.93;;;6.40;;
86137;SDS011;76796;49.056;15.810;2024-02-26T00:43:38;38.63;;;20.58;;
86137;SDS011;76796;49.056;15.810;2024-02-26T00:46:10;42.92;;;21.08;;
86137;SDS011;76796;49.056;15.810;2024-02-26T00:48:35;51.45;;;30.55;;
86137;SDS011;76796;49.056;15.810;2024-02-26T00:51:02;44.97;;;31.45;;
86137;SDS011;76796;49.056;15.810;2024-02-26T00:53:30;36.15;;;27.42;;
86137;SDS011;76796;49.056;15.810;2024-02-26T00:55:56;62.97;;;41.53;;
86137;SDS011;76796;49.056;15.810;2024-02-26T00:58:21;38.63;;;23.88;;
86137;SDS011;76796;49.056;15.810;2024-02-26T01:00:54;33.25;;;19.67;;
86137;SDS011;76796;49.056;15.810;2024-02-26T01:03:20;29.13;;;17.35;;
86137;SDS011;76796;49.056;15.810;2024-02-26T01:05:45;24.75;;;16.23;;
86137;SDS011;76796;49.056;15.810;2024-02-26T01:08:11;15.55;;;8.80;;
86137;SDS011;76796;49.056;15.810;2024-02-26T01:10:36;10.10;;;5.50;;
86137;SDS011;76796;49.056;15.810;2024-02-26T01:13:02;11.05;;;5.10;;
86137;SDS011;76796;49.056;15.810;2024-02-26T01:15:27;6.90;;;4.70;;
86137;SDS011;76796;49.056;15.810;2024-02-26T01:18:00;8.32;;;4.35;;
86137;SDS011;76796;49.056;15.810;2024-02-26T01:20:27;7.15;;;4.53;;
86137;SDS011;76796;49.056;15.810;2024-02-26T01:22:53;10.18;;;5.07;;
86137;SDS011;76796;49.056;15.810;2024-02-26T01:25:18;10.68;;;4.80;;
86137;SDS011;76796;49.056;15.810;2024-02-26T01:27:44;10.05;;;4.68;;
86137;SDS011;76796;49.056;15.810;2024-02-26T01:30:10;7.93;;;4.55;;
86137;SDS011;76796;49.056;15.810;2024-02-26T01:32:36;7.93;;;4.40;;
86137;SDS011;76796;49.056;15.810;2024-02-26T01:35:08;7.53;;;4.43;;
86137;SDS011;76796;49.056;15.810;2024-02-26T01:37:36;7.53;;;4.10;;
86137;SDS011;76796;49.056;15.810;2024-02-26T01:40:09;10.23;;;4.60;;
86137;SDS011;76796;49.056;15.810;2024-02-26T01:42:44;6.97;;;3.67;;
86137;SDS011;76796;49.056;15.810;2024-02-26T01:45:12;10.18;;;4.13;;
86137;SDS011;76796;49.056;15.810;2024-02-26T01:50:18;9.90;;;4.13;;
86137;SDS011;76796;49.056;15.810;2024-02-26T01:52:45;7.65;;;3.83;;
86137;SDS011;76796;49.056;15.810;2024-02-26T01:55:13;11.43;;;4.57;;
86137;SDS011;76796;49.056;15.810;2024-02-26T01:57:45;8.65;;;4.00;;
86137;SDS011;76796;49.056;15.810;2024-02-26T02:00:13;11.70;;;4.15;;
86137;SDS011;76796;49.056;15.810;2024-02-26T02:02:40;7.72;;;3.92;;
86137;SDS011;76796;49.056;15.810;2024-02-26T02:05:07;8.13;;;4.03;;
86137;SDS011;76796;49.056;15.810;2024-02-26T02:07:41;6.80;;;4.00;;
86137;SDS011;76796;49.056;15.810;2024-02-26T02:10:06;6.20;;;3.90;;
86137;SDS011;76796;49.056;15.810;2024-02-26T02:12:33;7.93;;;3.58;;
86137;SDS011;76796;49.056;15.810;2024-02-26T02:15:00;6.78;;;3.95;;
86137;SDS011;76796;49.056;15.810;2024-02-26T02:17:27;7.78;;;4.25;;
86137;SDS011;76796;49.056;15.810;2024-02-26T02:19:53;7.50;;;4.05;;
86137;SDS011;76796;49.056;15.810;2024-02-26T02:22:19;7.20;;;3.88;;
86137;SDS011;76796;49.056;15.810;2024-02-26T02:24:52;9.95;;;4.53;;
86137;SDS011;76796;49.056;15.810;2024-02-26T02:27:17;8.07;;;4.82;;
86137;SDS011;76796;49.056;15.810;2024-02-26T02:29:44;6.25;;;4.50;;
86137;SDS011;76796;49.056;15.810;2024-02-26T02:32:10;7.53;;;4.00;;
86137;SDS011;76796;49.056;15.810;2024-02-26T02:34:35;6.15;;;3.78;;
86137;SDS011;76796;49.056;15.810;2024-02-26T02:37:01;7.80;;;3.95;;
86137;SDS011;76796;49.056;15.810;2024-02-26T02:39:27;7.78;;;4.00;;
86137;SDS011;76796;49.056;15.810;2024-02-26T02:42:06;5.78;;;3.30;;
86137;SDS011;76796;49.056;15.810;2024-02-26T02:44:31;6.10;;;3.90;;
86137;SDS011;76796;49.056;15.810;2024-02-26T02:46:57;8.60;;;3.97;;
86137;SDS011;76796;49.056;15.810;2024-02-26T02:49:22;7.28;;;3.90;;
86137;SDS011;76796;49.056;15.810;2024-02-26T02:51:55;7.32;;;4.38;;
86137;SDS011;76796;49.056;15.810;2024-02-26T02:54:24;9.05;;;4.53;;
86137;SDS011;76796;49.056;15.810;2024-02-26T03:00:14;7.03;;;3.95;;
86137;SDS011;76796;49.056;15.810;2024-02-26T03:02:40;7.55;;;4.38;;
86137;SDS011;76796;49.056;15.810;2024-02-26T03:05:19;8.82;;;4.32;;
86137;SDS011;76796;49.056;15.810;2024-02-26T03:07:44;10.75;;;4.93;;
86137;SDS011;76796;49.056;15.810;2024-02-26T03:10:10;9.18;;;4.55;;
86137;SDS011;76796;49.056;15.810;2024-02-26T03:12:35;6.65;;;4.40;;
86137;SDS011;76796;49.056;15.810;2024-02-26T03:15:01;7.95;;;4.32;;
86137;SDS011;76796;49.056;15.810;2024-02-26T03:17:34;9.68;;;4.90;;
86137;SDS011;76796;49.056;15.810;2024-02-26T03:19:59;7.97;;;4.30;;
86137;SDS011;76796;49.056;15.810;2024-02-26T03:22:25;7.70;;;4.70;;
86137;SDS011;76796;49.056;15.810;2024-02-26T03:24:51;6.78;;;4.45;;
86137;SDS011;76796;49.056;15.810;2024-02-26T03:27:16;6.93;;;4.57;;
86137;SDS011;76796;49.056;15.810;2024-02-26T03:29:42;9.15;;;5.32;;
86137;SDS011;76796;49.056;15.810;2024-02-26T03:32:08;7.75;;;4.57;;
86137;SDS011;76796;49.056;15.810;2024-02-26T03:34:40;6.13;;;4.40;;
86137;SDS011;76796;49.056;15.810;2024-02-26T03:37:06;8.93;;;4.93;;
86137;SDS011;76796;49.056;15.810;2024-02-26T03:39:32;6.72;;;4.38;;
86137;SDS011;76796;49.056;15.810;2024-02-26T03:42:12;9.35;;;5.45;;
86137;SDS011;76796;49.056;15.810;2024-02-26T03:44:37;6.75;;;4.10;;
86137;SDS011;76796;49.056;15.810;2024-02-26T03:47:03;8.20;;;4.43;;
86137;SDS011;76796;49.056;15.810;2024-02-26T03:49:28;8.63;;;4.68;;
86137;SDS011;76796;49.056;15.810;2024-02-26T03:52:01;7.70;;;4.97;;
86137;SDS011;76796;49.056;15.810;2024-02-26T03:54:26;7.85;;;4.75;;
86137;SDS011;76796;49.056;15.810;2024-02-26T03:56:52;11.02;;;4.75;;
86137;SDS011;76796;49.056;15.810;2024-02-26T03:59:17;8.60;;;4.75;;
86137;SDS011;76796;49.056;15.810;2024-02-26T04:01:47;13.48;;;5.85;;
86137;SDS011;76796;49.056;15.810;2024-02-26T04:04:13;10.15;;;5.88;;
86137;SDS011;76796;49.056;15.810;2024-02-26T04:06:38;11.10;;;6.38;;
86137;SDS011;76796;49.056;15.810;2024-02-26T04:09:10;11.30;;;5.88;;
86137;SDS011;76796;49.056;15.810;2024-02-26T04:11:35;10.82;;;6.38;;
86137;SDS011;76796;49.056;15.810;2024-02-26T04:14:01;16.80;;;7.18;;
86137;SDS011;76796;49.056;15.810;2024-02-26T04:16:28;13.35;;;6.97;;
86137;SDS011;76796;49.056;15.810;2024-02-26T04:18:53;13.52;;;8.00;;
86137;SDS011;76796;49.056;15.810;2024-02-26T04:21:19;14.60;;;7.90;;
86137;SDS011;76796;49.056;15.810;2024-02-26T04:23:45;13.73;;;8.63;;
86137;SDS011;76796;49.056;15.810;2024-02-26T04:26:17;16.95;;;7.80;;
86137;SDS011;76796;49.056;15.810;2024-02-26T04:28:42;15.48;;;8.63;;
86137;SDS011;76796;49.056;15.810;2024-02-26T04:31:08;18.27;;;8.77;;
86137;SDS011;76796;49.056;15.810;2024-02-26T04:33:34;13.20;;;7.80;;
86137;SDS011;76796;49.056;15.810;2024-02-26T04:36:00;12.70;;;7.90;;
86137;SDS011;76796;49.056;15.810;2024-02-26T04:38:25;16.05;;;8.75;;
86137;SDS011;76796;49.056;15.810;2024-02-26T04:40:51;19.40;;;9.90;;
86137;SDS011;76796;49.056;15.810;2024-02-26T04:43:23;18.27;;;9.02;;
86137;SDS011;76796;49.056;15.810;2024-02-26T04:45:55;15.35;;;9.75;;
86137;SDS011;76796;49.056;15.810;2024-02-26T04:48:22;16.77;;;9.75;;
86137;SDS011;76796;49.056;15.810;2024-02-26T04:50:48;16.42;;;9.73;;
86137;SDS011;76796;49.056;15.810;2024-02-26T04:53:13;16.85;;;9.52;;
86137;SDS011;76796;49.056;15.810;2024-02-26T04:55:39;17.17;;;9.57;;
86137;SDS011;76796;49.056;15.810;2024-02-26T04:58:04;16.45;;;8.73;;
86137;SDS011;76796;49.056;15.810;2024-02-26T05:00:37;20.50;;;11.30;;
86137;SDS011;76796;49.056;15.810;2024-02-26T05:03:02;25.15;;;13.18;;
86137;SDS011;76796;49.056;15.810;2024-02-26T05:05:28;21.88;;;12.77;;
86137;SDS011;76796;49.056;15.810;2024-02-26T05:07:54;23.77;;;13.90;;
86137;SDS011;76796;49.056;15.810;2024-02-26T05:10:19;28.00;;;15.55;;
86137;SDS011;76796;49.056;15.810;2024-02-26T05:12:45;24.83;;;15.23;;
86137;SDS011;76796;49.056;15.810;2024-02-26T05:15:10;23.45;;;12.52;;
86137;SDS011;76796;49.056;15.810;2024-02-26T05:17:43;25.83;;;13.35;;
86137;SDS011;76796;49.056;15.810;2024-02-26T05:20:10;22.30;;;12.93;;
86137;SDS011;76796;49.056;15.810;2024-02-26T05:22:36;22.02;;;12.05;;
86137;SDS011;76796;49.056;15.810;2024-02-26T05:25:02;26.20;;;16.15;;
86137;SDS011;76796;49.056;15.810;2024-02-26T05:27:30;25.25;;;14.00;;
86137;SDS011;76796;49.056;15.810;2024-02-26T05:29:55;30.25;;;14.55;;
86137;SDS011;76796;49.056;15.810;2024-02-26T05:32:21;27.23;;;14.48;;
86137;SDS011;76796;49.056;15.810;2024-02-26T05:34:53;27.85;;;14.25;;
86137;SDS011;76796;49.056;15.810;2024-02-26T05:37:19;23.58;;;13.32;;
86137;SDS011;76796;49.056;15.810;2024-02-26T05:39:45;23.95;;;14.00;;
86137;SDS011;76796;49.056;15.810;2024-02-26T05:42:21;27.20;;;15.75;;
86137;SDS011;76796;49.056;15.810;2024-02-26T05:44:46;27.75;;;13.55;;
86137;SDS011;76796;49.056;15.810;2024-02-26T05:47:12;26.10;;;14.88;;
86137;SDS011;76796;49.056;15.810;2024-02-26T05:49:38;24.80;;;14.27;;
86137;SDS011;76796;49.056;15.810;2024-02-26T05:52:11;26.38;;;14.20;;
86137;SDS011;76796;49.056;15.810;2024-02-26T05:54:36;28.35;;;14.55;;
86137;SDS011;76796;49.056;15.810;2024-02-26T05:57:02;26.67;;;15.98;;
86137;SDS011;76796;49.056;15.810;2024-02-26T05:59:28;27.92;;;14.65;;
86137;SDS011;76796;49.056;15.810;2024-02-26T06:01:53;29.38;;;16.42;;
86137;SDS011;76796;49.056;15.810;2024-02-26T06:04:18;26.88;;;14.52;;
86137;SDS011;76796;49.056;15.810;2024-02-26T06:06:44;31.33;;;15.32;;
86137;SDS011;76796;49.056;15.810;2024-02-26T06:09:17;23.33;;;13.32;;
86137;SDS011;76796;49.056;15.810;2024-02-26T06:11:42;25.95;;;14.48;;
86137;SDS011;76796;49.056;15.810;2024-02-26T06:14:08;29.30;;;15.43;;
86137;SDS011;76796;49.056;15.810;2024-02-26T06:16:33;24.88;;;14.82;;
86137;SDS011;76796;49.056;15.810;2024-02-26T06:19:00;24.90;;;12.90;;
86137;SDS011;76796;49.056;15.810;2024-02-26T06:21:25;24.92;;;13.90;;
86137;SDS011;76796;49.056;15.810;2024-02-26T06:23:51;24.27;;;13.45;;
86137;SDS011;76796;49.056;15.810;2024-02-26T06:26:23;26.60;;;14.20;;
86137;SDS011;76796;49.056;15.810;2024-02-26T06:28:48;25.55;;;15.10;;
86137;SDS011;76796;49.056;15.810;2024-02-26T06:31:14;25.85;;;14.93;;
86137;SDS011;76796;49.056;15.810;2024-02-26T06:33:39;22.13;;;13.88;;
86137;SDS011;76796;49.056;15.810;2024-02-26T06:36:05;23.55;;;13.00;;
86137;SDS011;76796;49.056;15.810;2024-02-26T06:38:30;27.20;;;14.73;;
86137;SDS011;76796;49.056;15.810;2024-02-26T06:40:56;26.75;;;15.65;;
86137;SDS011;76796;49.056;15.810;2024-02-26T06:43:28;26.25;;;14.10;;
86137;SDS011;76796;49.056;15.810;2024-02-26T06:46:00;20.63;;;13.40;;
86137;SDS011;76796;49.056;15.810;2024-02-26T06:48:26;24.48;;;13.70;;
86137;SDS011;76796;49.056;15.810;2024-02-26T06:50:51;21.52;;;12.82;;
86137;SDS011;76796;49.056;15.810;2024-02-26T06:53:17;23.92;;;12.77;;
86137;SDS011;76796;49.056;15.810;2024-02-26T06:55:42;24.90;;;13.45;;
86137;SDS011;76796;49.056;15.810;2024-02-26T07:01:36;28.35;;;14.27;;
86137;SDS011;76796;49.056;15.810;2024-02-26T07:04:01;20.40;;;12.15;;
86137;SDS011;76796;49.056;15.810;2024-02-26T07:06:27;24.83;;;14.63;;
86137;SDS011;76796;49.056;15.810;2024-02-26T07:08:53;26.23;;;14.38;;
86137;SDS011;76796;49.056;15.810;2024-02-26T07:11:19;24.65;;;13.13;;
86137;SDS011;76796;49.056;15.810;2024-02-26T07:13:47;19.27;;;11.73;;
86137;SDS011;76796;49.056;15.810;2024-02-26T07:16:14;22.70;;;11.80;;
86137;SDS011;76796;49.056;15.810;2024-02-26T07:18:47;25.15;;;13.18;;
86137;SDS011;76796;49.056;15.810;2024-02-26T07:21:12;18.23;;;11.93;;
86137;SDS011;76796;49.056;15.810;2024-02-26T07:23:38;23.02;;;12.60;;
86137;SDS011;76796;49.056;15.810;2024-02-26T07:26:03;22.65;;;13.40;;
86137;SDS011;76796;49.056;15.810;2024-02-26T07:28:29;20.58;;;12.57;;
86137;SDS011;76796;49.056;15.810;2024-02-26T07:30:54;24.40;;;12.75;;
86137;SDS011;76796;49.056;15.810;2024-02-26T07:33:20;22.20;;;12.65;;
86137;SDS011;76796;49.056;15.810;2024-02-26T07:38:36;18.70;;;11.82;;
86137;SDS011;76796;49.056;15.810;2024-02-26T07:41:09;19.73;;;12.05;;
86137;SDS011;76796;49.056;15.810;2024-02-26T07:43:48;24.15;;;13.32;;
86137;SDS011;76796;49.056;15.810;2024-02-26T07:46:13;22.35;;;12.68;;
86137;SDS011;76796;49.056;15.810;2024-02-26T07:48:39;24.55;;;12.77;;
86137;SDS011;76796;49.056;15.810;2024-02-26T07:51:14;19.92;;;13.07;;
86137;SDS011;76796;49.056;15.810;2024-02-26T07:53:40;19.17;;;12.00;;
86137;SDS011;76796;49.056;15.810;2024-02-26T07:56:06;20.10;;;12.18;;
86137;SDS011;76796;49.056;15.810;2024-02-26T07:58:32;20.65;;;11.20;;
86137;SDS011;76796;49.056;15.810;2024-02-26T08:00:58;17.52;;;10.63;;
86137;SDS011;76796;49.056;15.810;2024-02-26T08:03:23;22.60;;;11.18;;
86137;SDS011;76796;49.056;15.810;2024-02-26T08:05:50;20.02;;;11.77;;
86137;SDS011;76796;49.056;15.810;2024-02-26T08:08:23;22.33;;;12.45;;
86137;SDS011;76796;49.056;15.810;2024-02-26T08:10:48;16.92;;;9.57;;
86137;SDS011;76796;49.056;15.810;2024-02-26T08:13:14;21.85;;;13.45;;
86137;SDS011;76796;49.056;15.810;2024-02-26T08:15:39;19.48;;;11.07;;
86137;SDS011;76796;49.056;15.810;2024-02-26T08:18:05;19.08;;;11.40;;
86137;SDS011;76796;49.056;15.810;2024-02-26T08:20:31;19.17;;;12.15;;
86137;SDS011;76796;49.056;15.810;2024-02-26T08:22:57;17.75;;;10.82;;
86137;SDS011;76796;49.056;15.810;2024-02-26T08:25:29;22.35;;;13.23;;
86137;SDS011;76796;49.056;15.810;2024-02-26T08:27:55;20.40;;;13.27;;
86137;SDS011;76796;49.056;15.810;2024-02-26T08:30:20;22.10;;;12.90;;
86137;SDS011;76796;49.056;15.810;2024-02-26T08:32:47;18.95;;;11.10;;
86137;SDS011;76796;49.056;15.810;2024-02-26T08:35:12;17.55;;;11.77;;
86137;SDS011;76796;49.056;15.810;2024-02-26T08:37:38;18.73;;;12.15;;
86137;SDS011;76796;49.056;15.810;2024-02-26T08:40:04;21.90;;;12.68;;
86137;SDS011;76796;49.056;15.810;2024-02-26T08:42:44;18.48;;;11.77;;
86137;SDS011;76796;49.056;15.810;2024-02-26T08:45:09;22.08;;;12.60;;
86137;SDS011;76796;49.056;15.810;2024-02-26T08:47:35;17.65;;;10.30;;
86137;SDS011;76796;49.056;15.810;2024-02-26T08:50:00;22.13;;;12.68;;
86137;SDS011;76796;49.056;15.810;2024-02-26T08:52:28;19.02;;;11.60;;
86137;SDS011;76796;49.056;15.810;2024-02-26T08:54:53;20.90;;;10.50;;
86137;SDS011;76796;49.056;15.810;2024-02-26T08:57:19;20.00;;;11.93;;
86137;SDS011;76796;49.056;15.810;2024-02-26T08:59:51;23.15;;;11.10;;
86137;SDS011;76796;49.056;15.810;2024-02-26T09:02:16;22.83;;;13.00;;
86137;SDS011;76796;49.056;15.810;2024-02-26T09:04:42;17.83;;;9.90;;
86137;SDS011;76796;49.056;15.810;2024-02-26T09:10:49;17.48;;;10.35;;
86137;SDS011;76796;49.056;15.810;2024-02-26T09:13:15;20.75;;;11.73;;
86137;SDS011;76796;49.056;15.810;2024-02-26T09:15:47;16.88;;;10.77;;
86137;SDS011;76796;49.056;15.810;2024-02-26T09:18:12;17.35;;;10.65;;
86137;SDS011;76796;49.056;15.810;2024-02-26T09:20:40;20.10;;;12.45;;
86137;SDS011;76796;49.056;15.810;2024-02-26T09:23:06;19.85;;;11.98;;
86137;SDS011;76796;49.056;15.810;2024-02-26T09:25:31;17.95;;;10.80;;
86137;SDS011;76796;49.056;15.810;2024-02-26T09:27:58;18.45;;;12.23;;
86137;SDS011;76796;49.056;15.810;2024-02-26T09:30:24;17.30;;;11.18;;
86137;SDS011;76796;49.056;15.810;2024-02-26T09:32:56;16.40;;;10.25;;
86137;SDS011;76796;49.056;15.810;2024-02-26T09:35:21;25.13;;;10.55;;
86137;SDS011;76796;49.056;15.810;2024-02-26T09:37:47;16.50;;;10.50;;
86137;SDS011;76796;49.056;15.810;2024-02-26T09:40:14;19.00;;;10.50;;
86137;SDS011;76796;49.056;15.810;2024-02-26T09:42:43;17.40;;;10.23;;
86137;SDS011;76796;49.056;15.810;2024-02-26T09:45:17;16.95;;;9.98;;
86137;SDS011;76796;49.056;15.810;2024-02-26T09:47:45;17.88;;;10.43;;
86137;SDS011;76796;49.056;15.810;2024-02-26T09:50:19;17.67;;;10.50;;
86137;SDS011;76796;49.056;15.810;2024-02-26T09:52:47;16.00;;;9.93;;
86137;SDS011;76796;49.056;15.810;2024-02-26T09:55:16;16.73;;;10.13;;
86137;SDS011;76796;49.056;15.810;2024-02-26T09:57:45;14.85;;;9.50;;
86137;SDS011;76796;49.056;15.810;2024-02-26T10:00:20;16.10;;;9.60;;
86137;SDS011;76796;49.056;15.810;2024-02-26T10:02:53;15.65;;;10.00;;
86137;SDS011;76796;49.056;15.810;2024-02-26T10:05:28;16.38;;;9.57;;
86137;SDS011;76796;49.056;15.810;2024-02-26T10:07:55;13.90;;;8.52;;
86137;SDS011;76796;49.056;15.810;2024-02-26T10:10:22;13.75;;;9.45;;
86137;SDS011;76796;49.056;15.810;2024-02-26T10:12:48;15.95;;;9.30;;
86137;SDS011;76796;49.056;15.810;2024-02-26T10:15:14;14.70;;;9.38;;
86137;SDS011;76796;49.056;15.810;2024-02-26T10:17:40;15.63;;;9.40;;
86137;SDS011;76796;49.056;15.810;2024-02-26T10:20:18;12.20;;;8.45;;
86137;SDS011;76796;49.056;15.810;2024-02-26T10:22:53;10.90;;;7.85;;
86137;SDS011;76796;49.056;15.810;2024-02-26T10:25:18;12.40;;;9.02;;
86137;SDS011;76796;49.056;15.810;2024-02-26T10:27:45;14.68;;;9.13;;
86137;SDS011;76796;49.056;15.810;2024-02-26T10:30:17;11.43;;;7.30;;
86137;SDS011;76796;49.056;15.810;2024-02-26T10:32:47;9.38;;;7.30;;
86137;SDS011;76796;49.056;15.810;2024-02-26T10:35:13;16.63;;;8.45;;
86137;SDS011;76796;49.056;15.810;2024-02-26T10:37:40;13.07;;;8.07;;
86137;SDS011;76796;49.056;15.810;2024-02-26T10:40:13;15.40;;;9.30;;
86137;SDS011;76796;49.056;15.810;2024-02-26T10:42:39;13.88;;;8.95;;
86137;SDS011;76796;49.056;15.810;2024-02-26T10:45:12;12.38;;;8.32;;
86137;SDS011;76796;49.056;15.810;2024-02-26T10:47:38;16.38;;;10.73;;
86137;SDS011;76796;49.056;15.810;2024-02-26T10:50:06;14.05;;;8.85;;
86137;SDS011;76796;49.056;15.810;2024-02-26T10:52:32;12.82;;;8.32;;
86137;SDS011;76796;49.056;15.810;2024-02-26T10:55:00;11.07;;;8.00;;
86137;SDS011;76796;49.056;15.810;2024-02-26T10:57:38;15.10;;;8.07;;
86137;SDS011;76796;49.056;15.810;2024-02-26T11:00:05;11.93;;;7.63;;
86137;SDS011;76796;49.056;15.810;2024-02-26T11:02:33;11.80;;;7.63;;
86137;SDS011;76796;49.056;15.810;2024-02-26T11:05:04;12.10;;;8.40;;
86137;SDS011;76796;49.056;15.810;2024-02-26T11:07:31;10.85;;;8.18;;
86137;SDS011;76796;49.056;15.810;2024-02-26T11:10:02;10.75;;;7.47;;
86137;SDS011;76796;49.056;15.810;2024-02-26T11:12:34;11.32;;;7.85;;
86137;SDS011;76796;49.056;15.810;2024-02-26T11:15:09;10.50;;;6.55;;
86137;SDS011;76796;49.056;15.810;2024-02-26T11:17:35;9.82;;;6.55;;
86137;SDS011;76796;49.056;15.810;2024-02-26T11:20:03;12.55;;;8.07;;
86137;SDS011;76796;49.056;15.810;2024-02-26T11:22:30;19.77;;;8.07;;
86137;SDS011;76796;49.056;15.810;2024-02-26T11:24:56;9.75;;;7.22;;
86137;SDS011;76796;49.056;15.810;2024-02-26T11:27:23;11.70;;;8.13;;
86137;SDS011;76796;49.056;15.810;2024-02-26T11:29:55;11.95;;;7.38;;
86137;SDS011;76796;49.056;15.810;2024-02-26T11:32:30;10.07;;;7.15;;
86137;SDS011;76796;49.056;15.810;2024-02-26T11:34:56;11.18;;;7.22;;
86137;SDS011;76796;49.056;15.810;2024-02-26T11:37:23;10.50;;;7.13;;
86137;SDS011;76796;49.056;15.810;2024-02-26T11:39:49;9.57;;;6.10;;
86137;SDS011;76796;49.056;15.810;2024-02-26T11:42:24;10.73;;;7.47;;
86137;SDS011;76796;49.056;15.810;2024-02-26T11:44:50;9.35;;;6.07;;
86137;SDS011;76796;49.056;15.810;2024-02-26T11:47:20;9.63;;;6.72;;
86137;SDS011;76796;49.056;15.810;2024-02-26T11:49:53;9.95;;;6.05;;
86137;SDS011;76796;49.056;15.810;2024-02-26T11:52:19;10.38;;;6.60;;
86137;SDS011;76796;49.056;15.810;2024-02-26T11:54:51;7.72;;;5.75;;
86137;SDS011;76796;49.056;15.810;2024-02-26T11:57:24;8.15;;;6.13;;
86137;SDS011;76796;49.056;15.810;2024-02-26T12:02:41;10.43;;;6.22;;
86137;SDS011;76796;49.056;15.810;2024-02-26T12:05:18;10.18;;;6.68;;
86137;SDS011;76796;49.056;15.810;2024-02-26T12:07:46;9.35;;;5.97;;
86137;SDS011;76796;49.056;15.810;2024-02-26T12:10:23;9.35;;;6.55;;
86137;SDS011;76796;49.056;15.810;2024-02-26T12:13:00;11.15;;;6.68;;
86137;SDS011;76796;49.056;15.810;2024-02-26T12:15:45;10.00;;;6.43;;
86137;SDS011;76796;49.056;15.810;2024-02-26T12:18:31;10.82;;;6.10;;
86137;SDS011;76796;49.056;15.810;2024-02-26T12:21:03;8.82;;;6.13;;
86137;SDS011;76796;49.056;15.810;2024-02-26T12:23:29;8.82;;;5.72;;
86137;SDS011;76796;49.056;15.810;2024-02-26T12:26:01;7.05;;;4.93;;
86137;SDS011;76796;49.056;15.810;2024-02-26T12:28:31;9.10;;;6.40;;
86137;SDS011;76796;49.056;15.810;2024-02-26T12:30:56;11.13;;;6.55;;
86137;SDS011;76796;49.056;15.810;2024-02-26T12:33:25;11.93;;;7.80;;
86137;SDS011;76796;49.056;15.810;2024-02-26T12:35:51;10.80;;;7.20;;
86137;SDS011;76796;49.056;15.810;2024-02-26T12:38:24;8.68;;;6.47;;
86137;SDS011;76796;49.056;15.810;2024-02-26T12:40:50;9.43;;;6.00;;
86137;SDS011;76796;49.056;15.810;2024-02-26T12:43:16;9.60;;;6.25;;
86137;SDS011;76796;49.056;15.810;2024-02-26T12:45:47;11.05;;;6.78;;
86137;SDS011;76796;49.056;15.810;2024-02-26T12:48:13;8.75;;;6.45;;
86137;SDS011;76796;49.056;15.810;2024-02-26T12:50:39;9.90;;;6.55;;
86137;SDS011;76796;49.056;15.810;2024-02-26T12:53:04;10.13;;;6.32;;
86137;SDS011;76796;49.056;15.810;2024-02-26T12:55:37;10.38;;;6.28;;
86137;SDS011;76796;49.056;15.810;2024-02-26T12:58:05;9.52;;;6.05;;
86137;SDS011;76796;49.056;15.810;2024-02-26T13:00:31;8.35;;;5.60;;
86137;SDS011;76796;49.056;15.810;2024-02-26T13:02:56;8.02;;;5.80;;
86137;SDS011;76796;49.056;15.810;2024-02-26T13:05:25;8.82;;;5.53;;
86137;SDS011;76796;49.056;15.810;2024-02-26T13:07:50;11.18;;;6.07;;
86137;SDS011;76796;49.056;15.810;2024-02-26T13:10:18;9.05;;;6.35;;
86137;SDS011;76796;49.056;15.810;2024-02-26T13:12:51;10.43;;;5.85;;
86137;SDS011;76796;49.056;15.810;2024-02-26T13:15:17;8.52;;;5.03;;
86137;SDS011;76796;49.056;15.810;2024-02-26T13:17:47;10.63;;;5.70;;
86137;SDS011;76796;49.056;15.810;2024-02-26T13:20:24;11.02;;;5.65;;
86137;SDS011;76796;49.056;15.810;2024-02-26T13:23:02;8.50;;;5.47;;
86137;SDS011;76796;49.056;15.810;2024-02-26T13:25:30;10.35;;;6.95;;
86137;SDS011;76796;49.056;15.810;2024-02-26T13:28:09;11.95;;;6.72;;
86137;SDS011;76796;49.056;15.810;2024-02-26T13:30:39;8.30;;;6.35;;
86137;SDS011;76796;49.056;15.810;2024-02-26T13:33:11;9.50;;;5.78;;
86137;SDS011;76796;49.056;15.810;2024-02-26T13:35:37;9.07;;;6.40;;
86137;SDS011;76796;49.056;15.810;2024-02-26T13:38:04;9.48;;;6.68;;
86137;SDS011;76796;49.056;15.810;2024-02-26T13:40:31;8.85;;;6.07;;
86137;SDS011;76796;49.056;15.810;2024-02-26T13:42:57;10.63;;;6.45;;
86137;SDS011;76796;49.056;15.810;2024-02-26T13:45:29;10.45;;;6.43;;
86137;SDS011;76796;49.056;15.810;2024-02-26T13:48:01;8.63;;;5.72;;
86137;SDS011;76796;49.056;15.810;2024-02-26T13:50:28;8.57;;;6.40;;
86137;SDS011;76796;49.056;15.810;2024-02-26T13:52:54;9.18;;;6.55;;
86137;SDS011;76796;49.056;15.810;2024-02-26T13:55:27;8.10;;;5.68;;
86137;SDS011;76796;49.056;15.810;2024-02-26T13:57:57;11.30;;;6.22;;
86137;SDS011;76796;49.056;15.810;2024-02-26T14:00:24;11.70;;;6.28;;
86137;SDS011;76796;49.056;15.810;2024-02-26T14:02:57;9.13;;;5.65;;
86137;SDS011;76796;49.056;15.810;2024-02-26T14:05:23;9.15;;;6.30;;
86137;SDS011;76796;49.056;15.810;2024-02-26T14:07:48;8.68;;;5.82;;
86137;SDS011;76796;49.056;15.810;2024-02-26T14:10:14;8.93;;;5.78;;
86137;SDS011;76796;49.056;15.810;2024-02-26T14:12:41;9.23;;;6.40;;
86137;SDS011;76796;49.056;15.810;2024-02-26T14:15:07;8.32;;;6.22;;
86137;SDS011;76796;49.056;15.810;2024-02-26T14:17:35;12.40;;;8.80;;
86137;SDS011;76796;49.056;15.810;2024-02-26T14:20:07;13.65;;;8.43;;
86137;SDS011;76796;49.056;15.810;2024-02-26T14:22:40;16.25;;;9.52;;
86137;SDS011;76796;49.056;15.810;2024-02-26T14:25:06;15.52;;;10.40;;
86137;SDS011;76796;49.056;15.810;2024-02-26T14:27:41;10.48;;;7.20;;
86137;SDS011;76796;49.056;15.810;2024-02-26T14:30:07;9.98;;;6.68;;
86137;SDS011;76796;49.056;15.810;2024-02-26T14:32:33;12.32;;;6.63;;
86137;SDS011;76796;49.056;15.810;2024-02-26T14:35:01;10.38;;;7.22;;
86137;SDS011;76796;49.056;15.810;2024-02-26T14:37:37;8.10;;;5.65;;
86137;SDS011;76796;49.056;15.810;2024-02-26T14:40:03;10.98;;;5.93;;
86137;SDS011;76796;49.056;15.810;2024-02-26T14:42:30;10.70;;;6.15;;
86137;SDS011;76796;49.056;15.810;2024-02-26T14:45:03;9.48;;;5.53;;